Lompico, California
Current Conditions -  °F | °C
As of 10:04 AM on Friday 21 Nov 2014 (Local Time) from KWVI Reporting Station
Haze Haze  
Wind Chill: 55°   Ceiling: 200
Heat Index: 55°   Visibility: 4mi
Dew Point: 54°   Wind: 0mph
Humidity: 96%   Direction: NA
Pressure: 30.12"   Gusts: NA
Location:  37.0802°N, 122.052°W
Report Text: KWVI 211804Z AUTO 00000KT 4SM BR OVC002 13/12 A3012 RMK AO2 T01280122
Loading
Personal Weather Stations






























Interactive Weather Map New forecast layout! Learn more

10-Day Weather Forecast

Advertisements
Track Severe Weather on mobile